sensor_id;sensor_type;location;lat;lon;timestamp;pressure;altitude;pressure_sealevel;temperature;humidity
62976;BME280;49071;0.000;0.000;2023-01-30T07:03:10;99842.19;;;16.63;36.84
62976;BME280;49071;0.000;0.000;2023-01-30T07:06:11;99850.38;;;16.74;37.08
62976;BME280;49071;0.000;0.000;2023-01-30T07:09:12;99861.09;;;16.86;36.65
62976;BME280;49071;0.000;0.000;2023-01-30T07:12:12;99846.38;;;16.99;36.57
62976;BME280;49071;0.000;0.000;2023-01-30T07:15:12;99837.59;;;17.16;36.03
62976;BME280;49071;0.000;0.000;2023-01-30T07:18:12;99846.44;;;17.29;36.23
62976;BME280;49071;0.000;0.000;2023-01-30T07:21:12;99853.34;;;17.46;36.29
62976;BME280;49071;0.000;0.000;2023-01-30T07:24:12;99841.38;;;17.56;35.70
62976;BME280;49071;0.000;0.000;2023-01-30T07:27:13;99844.03;;;17.70;35.67
62976;BME280;49071;0.000;0.000;2023-01-30T07:30:13;99843.84;;;17.74;35.38
62976;BME280;49071;0.000;0.000;2023-01-30T07:33:13;99830.25;;;17.83;35.48
62976;BME280;49071;0.000;0.000;2023-01-30T07:36:14;99837.28;;;17.82;35.50
62976;BME280;49071;0.000;0.000;2023-01-30T07:39:14;99835.66;;;17.80;35.15
62976;BME280;49071;0.000;0.000;2023-01-30T07:42:14;99836.94;;;17.73;35.55
62976;BME280;49071;0.000;0.000;2023-01-30T07:45:14;99835.16;;;17.73;35.50
62976;BME280;49071;0.000;0.000;2023-01-30T07:48:15;99827.13;;;17.76;35.38
62976;BME280;49071;0.000;0.000;2023-01-30T07:51:16;99824.88;;;17.84;35.75
62976;BME280;49071;0.000;0.000;2023-01-30T07:54:16;99819.47;;;17.87;35.46
62976;BME280;49071;0.000;0.000;2023-01-30T07:57:16;99815.81;;;17.90;35.60
62976;BME280;49071;0.000;0.000;2023-01-30T08:00:17;99808.13;;;18.01;35.43
62976;BME280;49071;0.000;0.000;2023-01-30T08:03:18;99817.34;;;18.23;35.16
62976;BME280;49071;0.000;0.000;2023-01-30T08:06:18;99805.22;;;18.34;35.15
62976;BME280;49071;0.000;0.000;2023-01-30T08:09:18;99807.56;;;18.39;35.19
62976;BME280;49071;0.000;0.000;2023-01-30T08:12:19;99810.28;;;18.37;34.99
62976;BME280;49071;0.000;0.000;2023-01-30T08:15:19;99814.97;;;18.32;35.07
62976;BME280;49071;0.000;0.000;2023-01-30T08:18:19;99815.25;;;18.28;35.14
62976;BME280;49071;0.000;0.000;2023-01-30T08:21:19;99801.59;;;18.23;35.18
62976;BME280;49071;0.000;0.000;2023-01-30T08:24:19;99798.41;;;18.17;35.33
62976;BME280;49071;0.000;0.000;2023-01-30T08:27:19;99799.72;;;18.10;35.27
62976;BME280;49071;0.000;0.000;2023-01-30T08:30:20;99801.03;;;18.03;35.16
62976;BME280;49071;0.000;0.000;2023-01-30T08:33:20;99793.63;;;17.96;35.17
62976;BME280;49071;0.000;0.000;2023-01-30T08:36:21;99793.34;;;17.86;35.51
62976;BME280;49071;0.000;0.000;2023-01-30T08:39:21;99793.03;;;17.76;35.54
62976;BME280;49071;0.000;0.000;2023-01-30T08:42:21;99798.72;;;17.68;35.54
62976;BME280;49071;0.000;0.000;2023-01-30T08:45:21;99793.16;;;17.59;35.52
62976;BME280;49071;0.000;0.000;2023-01-30T08:48:22;99792.88;;;17.49;35.93
62976;BME280;49071;0.000;0.000;2023-01-30T08:51:22;99775.97;;;17.39;35.73
62976;BME280;49071;0.000;0.000;2023-01-30T08:54:22;99794.03;;;17.29;36.00
62976;BME280;49071;0.000;0.000;2023-01-30T08:57:22;99791.09;;;17.19;35.95
62976;BME280;49071;0.000;0.000;2023-01-30T09:00:23;99780.09;;;17.13;35.91
62976;BME280;49071;0.000;0.000;2023-01-30T09:03:23;99769.06;;;17.08;36.33
62976;BME280;49071;0.000;0.000;2023-01-30T09:06:23;99765.50;;;17.09;36.10
62976;BME280;49071;0.000;0.000;2023-01-30T09:09:24;99775.81;;;17.12;36.41
62976;BME280;49071;0.000;0.000;2023-01-30T09:12:24;99778.16;;;17.16;36.22
62976;BME280;49071;0.000;0.000;2023-01-30T09:15:24;99782.88;;;17.26;36.27
62976;BME280;49071;0.000;0.000;2023-01-30T09:18:24;99782.34;;;17.35;36.02
62976;BME280;49071;0.000;0.000;2023-01-30T09:21:25;99786.13;;;17.45;36.00
62976;BME280;49071;0.000;0.000;2023-01-30T09:24:25;99792.41;;;17.57;35.74
62976;BME280;49071;0.000;0.000;2023-01-30T09:27:26;99796.75;;;17.72;35.75
62976;BME280;49071;0.000;0.000;2023-01-30T09:30:26;99791.50;;;17.72;35.71
62976;BME280;49071;0.000;0.000;2023-01-30T09:33:27;99800.72;;;17.93;35.26
62976;BME280;49071;0.000;0.000;2023-01-30T09:36:27;99800.06;;;18.04;35.49
62976;BME280;49071;0.000;0.000;2023-01-30T09:39:27;99804.59;;;18.16;35.00
62976;BME280;49071;0.000;0.000;2023-01-30T09:45:43;99820.78;;;18.37;35.08
62976;BME280;49071;0.000;0.000;2023-01-30T09:52:00;99810.28;;;18.37;34.97
62976;BME280;49071;0.000;0.000;2023-01-30T09:55:17;99806.91;;;18.35;35.18
62976;BME280;49071;0.000;0.000;2023-01-30T09:58:19;99802.91;;;18.30;34.95
62976;BME280;49071;0.000;0.000;2023-01-30T10:04:41;99802.69;;;18.18;34.88
62976;BME280;49071;0.000;0.000;2023-01-30T10:07:50;99794.34;;;18.12;35.32
62976;BME280;49071;0.000;0.000;2023-01-30T10:14:25;99780.75;;;18.05;35.64
62976;BME280;49071;0.000;0.000;2023-01-30T10:23:53;99774.59;;;18.21;35.33
62976;BME280;49071;0.000;0.000;2023-01-30T10:26:55;99767.06;;;18.29;35.09
62976;BME280;49071;0.000;0.000;2023-01-30T10:29:56;99762.47;;;18.32;35.06
62976;BME280;49071;0.000;0.000;2023-01-30T10:33:13;99760.50;;;18.36;35.00
62976;BME280;49071;0.000;0.000;2023-01-30T10:36:20;99754.03;;;18.41;35.31
62976;BME280;49071;0.000;0.000;2023-01-30T10:42:30;99746.31;;;18.53;34.97
62976;BME280;49071;0.000;0.000;2023-01-30T11:04:00;99724.47;;;19.19;34.32
62976;BME280;49071;0.000;0.000;2023-01-30T11:07:01;99732.28;;;19.21;34.30
62976;BME280;49071;0.000;0.000;2023-01-30T11:10:05;99719.22;;;19.19;34.40
62976;BME280;49071;0.000;0.000;2023-01-30T11:13:15;99720.25;;;19.17;34.59
62976;BME280;49071;0.000;0.000;2023-01-30T11:16:16;99716.28;;;19.11;34.25
62976;BME280;49071;0.000;0.000;2023-01-30T11:19:18;99724.44;;;19.06;34.22
62976;BME280;49071;0.000;0.000;2023-01-30T11:22:19;99723.16;;;18.99;34.65
62976;BME280;49071;0.000;0.000;2023-01-30T11:25:20;99711.31;;;18.94;34.48
62976;BME280;49071;0.000;0.000;2023-01-30T11:28:21;99709.28;;;18.84;34.37
62976;BME280;49071;0.000;0.000;2023-01-30T11:31:26;99700.94;;;18.78;34.68
62976;BME280;49071;0.000;0.000;2023-01-30T11:34:26;99693.53;;;18.70;34.47
62976;BME280;49071;0.000;0.000;2023-01-30T11:37:30;99700.78;;;18.67;34.79
62976;BME280;49071;0.000;0.000;2023-01-30T11:40:30;99695.09;;;18.60;34.93
62976;BME280;49071;0.000;0.000;2023-01-30T11:43:37;99683.94;;;18.56;34.79
62976;BME280;49071;0.000;0.000;2023-01-30T11:46:38;99684.13;;;18.53;34.61
62976;BME280;49071;0.000;0.000;2023-01-30T11:49:42;99677.38;;;18.49;34.88
62976;BME280;49071;0.000;0.000;2023-01-30T11:52:45;99668.84;;;18.46;35.20
62976;BME280;49071;0.000;0.000;2023-01-30T11:55:46;99666.03;;;18.49;34.73
62976;BME280;49071;0.000;0.000;2023-01-30T11:58:54;99660.59;;;18.52;35.01
62976;BME280;49071;0.000;0.000;2023-01-30T12:02:13;99656.81;;;18.56;34.86
62976;BME280;49071;0.000;0.000;2023-01-30T12:05:25;99640.13;;;18.57;35.17
62976;BME280;49071;0.000;0.000;2023-01-30T12:08:35;99632.69;;;18.63;34.70
62976;BME280;49071;0.000;0.000;2023-01-30T12:14:41;99657.69;;;18.69;34.95
62976;BME280;49071;0.000;0.000;2023-01-30T12:21:00;99618.56;;;18.79;34.58
62976;BME280;49071;0.000;0.000;2023-01-30T12:30:38;99605.25;;;18.95;34.89
62976;BME280;49071;0.000;0.000;2023-01-30T12:33:41;99612.59;;;19.02;34.79
62976;BME280;49071;0.000;0.000;2023-01-30T12:36:44;99611.84;;;19.13;34.56
62976;BME280;49071;0.000;0.000;2023-01-30T12:46:27;99603.69;;;19.30;34.11
62976;BME280;49071;0.000;0.000;2023-01-30T12:53:03;99602.38;;;19.23;34.40
62976;BME280;49071;0.000;0.000;2023-01-30T13:05:40;99600.72;;;18.97;34.53
62976;BME280;49071;0.000;0.000;2023-01-30T13:08:47;99616.06;;;18.90;34.26
62976;BME280;49071;0.000;0.000;2023-01-30T13:21:22;99612.59;;;18.62;35.01
62976;BME280;49071;0.000;0.000;2023-01-30T13:27:36;99612.72;;;18.61;34.78
62976;BME280;49071;0.000;0.000;2023-01-30T13:30:39;99607.47;;;18.61;34.92
62976;BME280;49071;0.000;0.000;2023-01-30T13:33:40;99596.00;;;18.62;35.05
62976;BME280;49071;0.000;0.000;2023-01-30T13:36:42;99590.75;;;18.62;34.78
62976;BME280;49071;0.000;0.000;2023-01-30T13:39:49;99598.56;;;18.63;34.95
62976;BME280;49071;0.000;0.000;2023-01-30T13:42:55;99594.75;;;18.68;34.70
62976;BME280;49071;0.000;0.000;2023-01-30T13:46:00;99585.75;;;18.72;35.00
62976;BME280;49071;0.000;0.000;2023-01-30T13:52:20;99583.03;;;18.86;34.69
62976;BME280;49071;0.000;0.000;2023-01-30T14:02:15;99561.81;;;19.02;34.63
62976;BME280;49071;0.000;0.000;2023-01-30T14:04:56;99568.13;;;18.99;34.31
62976;BME280;49071;0.000;0.000;2023-01-30T14:07:57;99567.50;;;18.96;34.73
62976;BME280;49071;0.000;0.000;2023-01-30T14:10:57;99569.50;;;18.92;34.69
62976;BME280;49071;0.000;0.000;2023-01-30T14:13:59;99567.19;;;18.87;34.67
62976;BME280;49071;0.000;0.000;2023-01-30T14:17:07;99576.31;;;18.82;34.67
62976;BME280;49071;0.000;0.000;2023-01-30T14:20:15;99565.38;;;18.75;34.82
62976;BME280;49071;0.000;0.000;2023-01-30T14:26:57;99554.50;;;18.54;34.72
62976;BME280;49071;0.000;0.000;2023-01-30T14:29:52;99563.19;;;18.42;34.75
62976;BME280;49071;0.000;0.000;2023-01-30T14:32:53;99550.56;;;18.34;34.92
62976;BME280;49071;0.000;0.000;2023-01-30T14:39:32;99556.97;;;18.30;35.29
62976;BME280;49071;0.000;0.000;2023-01-30T14:42:21;99551.72;;;18.30;35.09
62976;BME280;49071;0.000;0.000;2023-01-30T14:45:41;99559.50;;;18.32;35.04
62976;BME280;49071;0.000;0.000;2023-01-30T14:51:59;99571.50;;;18.36;35.20
62976;BME280;49071;0.000;0.000;2023-01-30T14:55:02;99574.97;;;18.36;35.08
62976;BME280;49071;0.000;0.000;2023-01-30T14:58:02;99594.81;;;18.40;35.25
62976;BME280;49071;0.000;0.000;2023-01-30T15:01:03;99599.03;;;18.43;35.62
62976;BME280;49071;0.000;0.000;2023-01-30T15:04:04;99626.56;;;18.50;35.39
62976;BME280;49071;0.000;0.000;2023-01-30T15:07:06;99631.81;;;18.50;35.15
62976;BME280;49071;0.000;0.000;2023-01-30T15:10:57;99628.47;;;18.61;34.82
62976;BME280;49071;0.000;0.000;2023-01-30T15:13:42;99641.94;;;18.69;35.20
62976;BME280;49071;0.000;0.000;2023-01-30T15:22:54;99653.78;;;18.89;34.67
62976;BME280;49071;0.000;0.000;2023-01-30T15:29:38;99666.00;;;18.90;35.01
62976;BME280;49071;0.000;0.000;2023-01-30T15:32:44;99671.00;;;18.93;34.75
62976;BME280;49071;0.000;0.000;2023-01-30T15:35:44;99668.38;;;18.93;34.76
62976;BME280;49071;0.000;0.000;2023-01-30T15:38:45;99675.63;;;18.90;35.34
62976;BME280;49071;0.000;0.000;2023-01-30T15:41:45;99685.44;;;18.87;35.37
62976;BME280;49071;0.000;0.000;2023-01-30T15:44:52;99698.84;;;18.83;35.31
62976;BME280;49071;0.000;0.000;2023-01-30T15:51:17;99692.78;;;18.68;35.31
62976;BME280;49071;0.000;0.000;2023-01-30T15:54:21;99696.38;;;18.67;35.50
62976;BME280;49071;0.000;0.000;2023-01-30T15:57:24;99707.16;;;18.62;35.88
62976;BME280;49071;0.000;0.000;2023-01-30T16:00:44;99701.38;;;18.57;35.71
62976;BME280;49071;0.000;0.000;2023-01-30T16:03:45;99709.63;;;18.51;35.89
62976;BME280;49071;0.000;0.000;2023-01-30T16:06:45;99725.78;;;18.45;36.32
62976;BME280;49071;0.000;0.000;2023-01-30T16:09:53;99720.53;;;18.45;36.44
62976;BME280;49071;0.000;0.000;2023-01-30T16:12:54;99724.63;;;18.49;36.38
62976;BME280;49071;0.000;0.000;2023-01-30T16:16:05;99722.78;;;18.51;36.34
62976;BME280;49071;0.000;0.000;2023-01-30T16:19:10;99741.25;;;18.50;36.49
62976;BME280;49071;0.000;0.000;2023-01-30T16:22:15;99734.88;;;18.54;36.35
62976;BME280;49071;0.000;0.000;2023-01-30T16:25:21;99738.78;;;18.61;36.33
62976;BME280;49071;0.000;0.000;2023-01-30T16:28:23;99740.25;;;18.65;36.29
62976;BME280;49071;0.000;0.000;2023-01-30T16:31:24;99752.16;;;18.71;36.34
62976;BME280;49071;0.000;0.000;2023-01-30T16:34:33;99761.44;;;18.76;36.10
62976;BME280;49071;0.000;0.000;2023-01-30T16:37:33;99775.25;;;18.80;36.04
62976;BME280;49071;0.000;0.000;2023-01-30T16:40:43;99780.47;;;18.94;36.19
62976;BME280;49071;0.000;0.000;2023-01-30T16:43:43;99792.91;;;19.05;36.01
62976;BME280;49071;0.000;0.000;2023-01-30T16:46:51;99791.34;;;19.15;36.09
62976;BME280;49071;0.000;0.000;2023-01-30T16:49:54;99794.31;;;19.23;35.81
62976;BME280;49071;0.000;0.000;2023-01-30T16:52:54;99799.56;;;19.23;35.54
62976;BME280;49071;0.000;0.000;2023-01-30T16:56:02;99798.00;;;19.21;35.76
62976;BME280;49071;0.000;0.000;2023-01-30T16:59:03;99799.13;;;19.17;35.98
62976;BME280;49071;0.000;0.000;2023-01-30T17:02:03;99807.31;;;19.12;35.63
62976;BME280;49071;0.000;0.000;2023-01-30T17:11:39;99811.59;;;19.00;36.14
62976;BME280;49071;0.000;0.000;2023-01-30T17:14:39;99810.97;;;18.97;36.08
62976;BME280;49071;0.000;0.000;2023-01-30T17:17:40;99817.44;;;18.91;36.02
62976;BME280;49071;0.000;0.000;2023-01-30T17:20:40;99815.31;;;18.83;36.35
62976;BME280;49071;0.000;0.000;2023-01-30T17:23:42;99815.69;;;18.77;36.58
62976;BME280;49071;0.000;0.000;2023-01-30T17:26:44;99808.19;;;18.71;36.72
62976;BME280;49071;0.000;0.000;2023-01-30T17:29:45;99833.97;;;18.64;36.62
62976;BME280;49071;0.000;0.000;2023-01-30T17:32:46;99833.63;;;18.56;36.43
62976;BME280;49071;0.000;0.000;2023-01-30T17:35:49;99839.16;;;18.52;36.81
62976;BME280;49071;0.000;0.000;2023-01-30T17:38:49;99847.03;;;18.52;36.81
62976;BME280;49071;0.000;0.000;2023-01-30T17:41:50;99841.69;;;18.53;37.07
62976;BME280;49071;0.000;0.000;2023-01-30T17:44:50;99853.31;;;18.49;36.89
62976;BME280;49071;0.000;0.000;2023-01-30T17:47:50;99875.44;;;18.45;36.88
62976;BME280;49071;0.000;0.000;2023-01-30T17:50:50;99879.88;;;18.45;37.13
62976;BME280;49071;0.000;0.000;2023-01-30T17:53:50;99897.88;;;18.51;37.05
62976;BME280;49071;0.000;0.000;2023-01-30T17:56:51;99882.66;;;18.56;36.81
62976;BME280;49071;0.000;0.000;2023-01-30T17:59:53;99898.63;;;18.67;36.71
62976;BME280;49071;0.000;0.000;2023-01-30T18:02:54;99898.06;;;18.76;36.57
62976;BME280;49071;0.000;0.000;2023-01-30T18:05:54;99908.13;;;18.84;36.70
62976;BME280;49071;0.000;0.000;2023-01-30T18:08:54;99918.97;;;18.92;36.64
62976;BME280;49071;0.000;0.000;2023-01-30T18:11:54;99922.53;;;19.05;36.66
62976;BME280;49071;0.000;0.000;2023-01-30T18:14:54;99927.09;;;19.16;36.56
62976;BME280;49071;0.000;0.000;2023-01-30T18:17:55;99926.81;;;19.21;36.47
62976;BME280;49071;0.000;0.000;2023-01-30T18:20:55;99948.31;;;19.27;36.54
62976;BME280;49071;0.000;0.000;2023-01-30T18:23:55;99929.25;;;19.24;36.30
62976;BME280;49071;0.000;0.000;2023-01-30T18:26:55;99933.94;;;19.19;36.48
62976;BME280;49071;0.000;0.000;2023-01-30T18:29:55;99955.09;;;19.17;36.33
62976;BME280;49071;0.000;0.000;2023-01-30T18:32:56;99966.91;;;19.10;36.54
62976;BME280;49071;0.000;0.000;2023-01-30T18:35:56;99962.91;;;19.04;36.58
62976;BME280;49071;0.000;0.000;2023-01-30T18:38:56;99978.19;;;18.98;36.69
62976;BME280;49071;0.000;0.000;2023-01-30T18:41:56;99983.53;;;18.96;36.60
62976;BME280;49071;0.000;0.000;2023-01-30T18:44:56;99994.34;;;18.92;36.79
62976;BME280;49071;0.000;0.000;2023-01-30T18:47:56;100003.44;;;18.86;36.46
62976;BME280;49071;0.000;0.000;2023-01-30T18:51:07;100009.94;;;18.80;36.72
62976;BME280;49071;0.000;0.000;2023-01-30T18:54:08;100007.75;;;18.73;36.91
62976;BME280;49071;0.000;0.000;2023-01-30T18:57:08;100000.88;;;18.70;36.94
62976;BME280;49071;0.000;0.000;2023-01-30T19:00:08;100014.28;;;18.65;37.09
62976;BME280;49071;0.000;0.000;2023-01-30T19:03:09;100015.59;;;18.58;37.25
62976;BME280;49071;0.000;0.000;2023-01-30T19:06:09;100025.53;;;18.53;37.38
62976;BME280;49071;0.000;0.000;2023-01-30T19:09:11;100035.38;;;18.50;37.43
62976;BME280;49071;0.000;0.000;2023-01-30T19:12:12;100030.97;;;18.50;37.39
62976;BME280;49071;0.000;0.000;2023-01-30T19:15:31;100037.06;;;18.51;37.40
62976;BME280;49071;0.000;0.000;2023-01-30T19:18:33;100046.63;;;18.52;37.72
62976;BME280;49071;0.000;0.000;2023-01-30T19:21:33;100059.75;;;18.52;37.55
62976;BME280;49071;0.000;0.000;2023-01-30T19:24:34;100064.81;;;18.55;37.54
62976;BME280;49071;0.000;0.000;2023-01-30T19:27:35;100073.97;;;18.63;37.33
62976;BME280;49071;0.000;0.000;2023-01-30T19:30:35;100075.34;;;18.69;37.39
62976;BME280;49071;0.000;0.000;2023-01-30T19:33:35;100091.81;;;18.73;37.35
62976;BME280;49071;0.000;0.000;2023-01-30T19:36:35;100097.28;;;18.84;37.07
62976;BME280;49071;0.000;0.000;2023-01-30T19:39:36;100104.81;;;18.90;37.10
62976;BME280;49071;0.000;0.000;2023-01-30T19:42:36;100114.03;;;18.97;37.05
62976;BME280;49071;0.000;0.000;2023-01-30T19:45:40;100121.81;;;18.99;37.17
62976;BME280;49071;0.000;0.000;2023-01-30T19:48:41;100121.81;;;18.99;36.99
62976;BME280;49071;0.000;0.000;2023-01-30T19:51:42;100120.13;;;18.98;36.89
62976;BME280;49071;0.000;0.000;2023-01-30T19:54:42;100135.22;;;18.94;36.87
62976;BME280;49071;0.000;0.000;2023-01-30T19:57:43;100141.50;;;18.92;37.22
62976;BME280;49071;0.000;0.000;2023-01-30T20:00:43;100140.56;;;18.93;37.08
62976;BME280;49071;0.000;0.000;2023-01-30T20:03:43;100141.69;;;18.88;36.87
62976;BME280;49071;0.000;0.000;2023-01-30T20:06:43;100143.53;;;18.86;37.08
62976;BME280;49071;0.000;0.000;2023-01-30T20:09:44;100150.19;;;18.78;37.23
62976;BME280;49071;0.000;0.000;2023-01-30T20:12:44;100151.38;;;18.72;37.32
62976;BME280;49071;0.000;0.000;2023-01-30T20:15:44;100165.53;;;18.70;37.29
62976;BME280;49071;0.000;0.000;2023-01-30T20:18:44;100162.31;;;18.64;37.23
62976;BME280;49071;0.000;0.000;2023-01-30T20:21:47;100172.44;;;18.56;37.49
62976;BME280;49071;0.000;0.000;2023-01-30T20:24:47;100177.03;;;18.53;37.63
62976;BME280;49071;0.000;0.000;2023-01-30T20:27:47;100186.81;;;18.49;37.50
62976;BME280;49071;0.000;0.000;2023-01-30T20:30:47;100190.72;;;18.42;37.88
62976;BME280;49071;0.000;0.000;2023-01-30T20:33:48;100198.78;;;18.39;37.91
62976;BME280;49071;0.000;0.000;2023-01-30T20:36:48;100202.28;;;18.39;37.67
62976;BME280;49071;0.000;0.000;2023-01-30T20:39:48;100210.91;;;18.41;37.97
62976;BME280;49071;0.000;0.000;2023-01-30T20:42:49;100197.59;;;18.45;37.90
62976;BME280;49071;0.000;0.000;2023-01-30T20:46:00;100207.00;;;18.49;38.01
62976;BME280;49071;0.000;0.000;2023-01-30T20:49:00;100210.13;;;18.55;38.14
62976;BME280;49071;0.000;0.000;2023-01-30T20:52:00;100213.78;;;18.53;38.21
62976;BME280;49071;0.000;0.000;2023-01-30T20:55:01;100220.63;;;18.55;37.80
62976;BME280;49071;0.000;0.000;2023-01-30T20:58:01;100232.47;;;18.62;37.82
62976;BME280;49071;0.000;0.000;2023-01-30T21:01:05;100230.28;;;18.71;37.30
62976;BME280;49071;0.000;0.000;2023-01-30T21:04:06;100222.25;;;18.74;37.41
62976;BME280;49071;0.000;0.000;2023-01-30T21:07:07;100231.53;;;18.79;37.50
